createdAt,value
2023-03-14T00:01:24.562Z,4.47
2023-03-14T00:03:51.772Z,1.93
2023-03-14T00:06:19.489Z,1.57
2023-03-14T00:08:46.622Z,2.47
2023-03-14T00:11:17.041Z,6.37
2023-03-14T00:13:44.214Z,1.77
2023-03-14T00:16:13.712Z,1.53
2023-03-14T00:18:40.956Z,0.93
2023-03-14T00:21:09.813Z,1.47
2023-03-14T00:23:38.146Z,1.20
2023-03-14T00:26:07.322Z,2.00
2023-03-14T00:28:35.940Z,1.27
2023-03-14T00:31:04.184Z,7.60
2023-03-14T00:33:31.128Z,3.47
2023-03-14T00:35:59.637Z,4.97
2023-03-14T00:38:27.319Z,3.70
2023-03-14T00:40:54.614Z,2.87
2023-03-14T00:43:25.417Z,2.13
2023-03-14T00:45:53.950Z,2.07
2023-03-14T00:48:21.222Z,2.43
2023-03-14T00:50:48.394Z,2.60
2023-03-14T00:53:15.209Z,2.75
2023-03-14T00:55:44.144Z,2.80
2023-03-14T00:58:12.635Z,3.40
2023-03-14T01:00:39.784Z,1.57
2023-03-14T01:03:10.587Z,5.63
2023-03-14T01:05:37.582Z,3.33
2023-03-14T01:08:07.678Z,2.57
2023-03-14T01:10:35.027Z,2.13
2023-03-14T01:13:01.942Z,2.33
2023-03-14T01:15:28.798Z,3.13
2023-03-14T01:18:33.187Z,1.80
2023-03-14T01:21:01.394Z,1.80
2023-03-14T01:23:28.235Z,2.97
2023-03-14T01:25:55.080Z,4.37
2023-03-14T01:28:21.826Z,3.33
2023-03-14T01:30:48.601Z,5.77
2023-03-14T01:33:15.894Z,5.00
2023-03-14T01:35:42.775Z,2.67
2023-03-14T01:38:10.928Z,9.77
2023-03-14T01:40:43.448Z,8.07
2023-03-14T01:43:15.928Z,6.87
2023-03-14T01:46:15.724Z,1.37
2023-03-14T01:48:46.936Z,8.33
2023-03-14T01:51:17.188Z,6.60
2023-03-14T01:53:47.148Z,3.27
2023-03-14T01:56:16.611Z,2.43
2023-03-14T01:58:46.404Z,5.10
2023-03-14T02:01:15.444Z,6.57
2023-03-14T02:03:48.408Z,5.00
2023-03-14T02:06:18.561Z,4.47
2023-03-14T02:08:49.446Z,5.57
2023-03-14T02:11:17.762Z,7.30
2023-03-14T02:13:45.834Z,1.47
2023-03-14T02:16:12.838Z,3.90
2023-03-14T02:18:41.531Z,4.27
2023-03-14T02:21:15.170Z,4.27
2023-03-14T02:23:49.561Z,4.03
2023-03-14T02:26:20.739Z,6.53
2023-03-14T02:28:49.585Z,3.80
2023-03-14T02:31:17.345Z,3.23
2023-03-14T02:33:44.177Z,4.10
2023-03-14T02:36:14.400Z,3.80
2023-03-14T02:38:47.183Z,4.47
2023-03-14T02:41:14.058Z,2.93
2023-03-14T02:43:40.847Z,6.23
2023-03-14T02:46:11.643Z,7.07
2023-03-14T02:48:42.179Z,4.43
2023-03-14T02:51:09.139Z,7.53
2023-03-14T02:53:38.044Z,4.83
2023-03-14T02:56:05.903Z,3.37
2023-03-14T02:58:32.827Z,4.97
2023-03-14T03:00:59.707Z,6.27
2023-03-14T03:03:28.017Z,2.57
2023-03-14T03:05:56.690Z,4.53
2023-03-14T03:08:25.695Z,4.37
2023-03-14T03:10:52.942Z,2.77
2023-03-14T03:13:19.983Z,2.50
2023-03-14T03:15:46.985Z,6.00
2023-03-14T03:18:13.826Z,3.83
2023-03-14T03:20:42.107Z,6.10
2023-03-14T03:23:09.033Z,2.40
2023-03-14T03:25:35.887Z,4.60
2023-03-14T03:28:03.077Z,5.40
2023-03-14T03:30:29.890Z,3.27
2023-03-14T03:32:56.903Z,3.43
2023-03-14T03:35:23.779Z,3.47
2023-03-14T03:37:51.977Z,2.90
2023-03-14T03:40:18.958Z,5.93
2023-03-14T03:42:45.854Z,3.50
2023-03-14T03:45:12.797Z,4.43
2023-03-14T03:47:39.629Z,3.63
2023-03-14T03:50:07.403Z,2.77
2023-03-14T03:52:34.242Z,3.33
2023-03-14T03:55:02.558Z,2.93
2023-03-14T03:57:29.540Z,3.60
2023-03-14T03:59:56.365Z,3.93
2023-03-14T04:02:23.207Z,2.83
2023-03-14T04:04:50.240Z,3.63
2023-03-14T04:07:17.429Z,3.33
2023-03-14T04:09:44.324Z,2.50
2023-03-14T04:12:13.426Z,3.57
2023-03-14T04:14:42.111Z,2.60
2023-03-14T04:17:09.292Z,2.10
2023-03-14T04:19:36.076Z,3.87
2023-03-14T04:22:02.957Z,6.63
2023-03-14T04:24:30.031Z,3.43
2023-03-14T04:26:56.805Z,4.13
2023-03-14T04:29:24.980Z,4.93
2023-03-14T04:31:51.749Z,7.47
2023-03-14T04:34:18.556Z,5.23
2023-03-14T04:36:45.370Z,3.20
2023-03-14T04:39:12.141Z,4.13
2023-03-14T04:41:38.975Z,3.97
2023-03-14T04:44:05.964Z,2.57
2023-03-14T04:46:34.169Z,4.50
2023-03-14T04:49:01.012Z,2.40
2023-03-14T04:51:28.335Z,3.77
2023-03-14T04:53:55.785Z,2.83
2023-03-14T04:56:22.670Z,6.67
2023-03-14T04:58:49.566Z,4.60
2023-03-14T05:01:16.444Z,6.47
2023-03-14T05:03:44.649Z,9.13
2023-03-14T05:06:11.619Z,6.77
2023-03-14T05:08:38.485Z,4.67
2023-03-14T05:11:05.832Z,3.33
2023-03-14T05:13:32.750Z,5.30
2023-03-14T05:16:05.972Z,4.60
2023-03-14T05:18:32.945Z,7.70
2023-03-14T05:21:01.190Z,3.63
2023-03-14T05:23:28.298Z,5.33
2023-03-14T05:25:55.337Z,3.93
2023-03-14T05:28:22.299Z,3.23
2023-03-14T05:30:49.425Z,4.97
2023-03-14T05:33:16.341Z,2.53
2023-03-14T05:35:43.948Z,3.80
2023-03-14T05:38:12.125Z,3.77
2023-03-14T05:40:39.007Z,4.00
2023-03-14T05:43:08.829Z,3.13
2023-03-14T05:45:36.430Z,3.60
2023-03-14T05:48:03.539Z,4.97
2023-03-14T05:50:30.715Z,2.40
2023-03-14T05:52:57.541Z,9.30
2023-03-14T05:55:25.882Z,3.50
2023-03-14T05:57:53.846Z,5.10
2023-03-14T06:00:21.719Z,3.77
2023-03-14T06:02:48.604Z,3.80
2023-03-14T06:05:15.462Z,4.73
2023-03-14T06:07:42.413Z,3.00
2023-03-14T06:10:10.423Z,3.40
2023-03-14T06:12:38.675Z,3.47
2023-03-14T06:15:06.626Z,4.90
2023-03-14T06:17:33.494Z,2.10
2023-03-14T06:20:00.398Z,3.83
2023-03-14T06:22:27.281Z,3.57
2023-03-14T06:24:54.176Z,3.70
2023-03-14T06:27:20.989Z,2.60
2023-03-14T06:29:49.170Z,1.60
2023-03-14T06:32:16.061Z,0.70
2023-03-14T06:34:42.913Z,2.40
2023-03-14T06:37:09.767Z,3.00
2023-03-14T06:39:36.696Z,4.47
2023-03-14T06:42:03.710Z,1.80
2023-03-14T06:44:30.562Z,2.40
2023-03-14T06:46:58.905Z,2.80
2023-03-14T06:49:25.969Z,3.40
2023-03-14T06:51:52.858Z,2.47
2023-03-14T06:54:19.689Z,5.13
2023-03-14T06:56:46.525Z,3.27
2023-03-14T06:59:13.402Z,2.37
2023-03-14T07:01:41.212Z,2.77
2023-03-14T07:04:10.158Z,1.67
2023-03-14T07:06:37.142Z,3.20
2023-03-14T07:09:04.328Z,3.07
2023-03-14T07:11:31.328Z,3.00
2023-03-14T07:13:58.189Z,1.77
2023-03-14T07:16:25.075Z,2.50
2023-03-14T07:18:53.005Z,3.50
2023-03-14T07:21:21.188Z,1.93
2023-03-14T07:23:48.081Z,2.73
2023-03-14T07:26:15.001Z,1.67
2023-03-14T07:28:42.105Z,1.70
2023-03-14T07:31:09.270Z,1.40
2023-03-14T07:33:36.295Z,3.13
2023-03-14T07:36:04.444Z,1.50
2023-03-14T07:38:33.011Z,1.40
2023-03-14T07:41:01.163Z,1.13
2023-03-14T07:43:28.346Z,1.73
2023-03-14T07:45:59.040Z,1.97
2023-03-14T07:48:27.823Z,3.50
2023-03-14T07:50:55.706Z,1.73
2023-03-14T07:53:23.506Z,1.63
2023-03-14T07:55:53.373Z,2.33
2023-03-14T07:58:20.564Z,1.97
2023-03-14T08:00:47.430Z,1.95
2023-03-14T08:03:14.318Z,1.97
2023-03-14T08:05:42.576Z,5.83
2023-03-14T08:08:09.678Z,0.60
2023-03-14T08:10:36.581Z,1.47
2023-03-14T08:13:04.886Z,2.87
2023-03-14T08:15:32.804Z,5.60
2023-03-14T08:17:59.713Z,2.13
2023-03-14T08:20:27.958Z,2.80
2023-03-14T08:22:56.952Z,2.17
2023-03-14T08:25:23.847Z,1.47
2023-03-14T08:27:50.708Z,4.30
2023-03-14T08:30:20.540Z,2.33
2023-03-14T08:32:47.540Z,3.57
2023-03-14T08:35:15.664Z,1.17
2023-03-14T08:37:42.679Z,3.30
2023-03-14T08:40:11.342Z,1.73
2023-03-14T08:42:41.341Z,4.00
2023-03-14T08:45:10.260Z,3.10
2023-03-14T08:47:38.478Z,4.70
2023-03-14T08:50:07.022Z,1.37
2023-03-14T08:52:34.191Z,2.30
2023-03-14T08:55:01.262Z,4.27
2023-03-14T08:57:28.601Z,3.23
2023-03-14T08:59:56.395Z,3.80
2023-03-14T09:02:23.994Z,2.87
2023-03-14T09:04:53.196Z,5.00
2023-03-14T09:07:20.269Z,1.53
2023-03-14T09:09:47.202Z,1.27
2023-03-14T09:12:14.348Z,1.53
2023-03-14T09:14:41.182Z,2.00
2023-03-14T09:17:08.712Z,1.23
2023-03-14T09:19:35.879Z,2.40
2023-03-14T09:22:04.101Z,1.20
2023-03-14T09:24:31.148Z,1.60
2023-03-14T09:26:58.322Z,2.73
2023-03-14T09:29:25.570Z,1.30
2023-03-14T09:31:52.546Z,2.13
2023-03-14T09:34:20.103Z,1.70
2023-03-14T09:36:47.028Z,2.73
2023-03-14T09:39:15.312Z,2.10
2023-03-14T09:41:44.654Z,1.80
2023-03-14T09:44:15.592Z,1.17
2023-03-14T09:46:45.996Z,1.30
2023-03-14T09:49:18.453Z,3.03
2023-03-14T09:51:48.279Z,1.67
2023-03-14T09:54:27.813Z,2.40
2023-03-14T09:56:55.756Z,2.47
2023-03-14T09:59:22.810Z,1.77
2023-03-14T10:01:49.705Z,3.57
2023-03-14T10:04:21.903Z,1.63
2023-03-14T10:06:49.231Z,3.57
2023-03-14T10:09:26.135Z,1.53
2023-03-14T10:11:55.898Z,1.43
2023-03-14T10:14:34.251Z,1.90
2023-03-14T10:17:10.727Z,3.27
2023-03-14T10:19:38.475Z,6.10
2023-03-14T10:22:06.373Z,2.10
2023-03-14T10:24:36.112Z,3.03
2023-03-14T10:27:05.672Z,1.30
2023-03-14T10:29:33.775Z,1.27
2023-03-14T10:32:02.612Z,1.57
2023-03-14T10:34:31.477Z,0.80
2023-03-14T10:37:00.521Z,1.37
2023-03-14T10:39:31.423Z,1.73
2023-03-14T10:42:07.764Z,1.20
2023-03-14T10:44:36.473Z,2.10
2023-03-14T10:47:05.291Z,2.47
2023-03-14T10:49:34.201Z,1.50
2023-03-14T10:52:15.512Z,1.07
2023-03-14T10:54:45.530Z,1.37
2023-03-14T10:57:13.773Z,2.30
2023-03-14T10:59:43.279Z,1.17
2023-03-14T11:02:26.455Z,2.03
2023-03-14T11:05:05.703Z,4.07
2023-03-14T11:07:37.614Z,2.33
2023-03-14T11:10:15.661Z,3.97
2023-03-14T11:12:53.360Z,2.70
2023-03-14T11:15:26.561Z,2.57
2023-03-14T11:18:10.644Z,1.73
2023-03-14T11:20:44.199Z,2.47
2023-03-14T11:23:15.748Z,5.00
2023-03-14T11:25:50.576Z,1.77
2023-03-14T11:28:27.000Z,1.63
2023-03-14T11:30:55.424Z,2.90
2023-03-14T11:33:26.479Z,3.23
2023-03-14T11:36:01.168Z,2.60
2023-03-14T11:38:38.011Z,2.43
2023-03-14T11:41:10.247Z,2.37
2023-03-14T11:43:43.716Z,3.23
2023-03-14T11:46:16.599Z,3.90
2023-03-14T11:48:49.691Z,2.20
2023-03-14T11:51:23.846Z,1.50
2023-03-14T11:53:58.291Z,3.23
2023-03-14T11:56:32.360Z,1.83
2023-03-14T11:59:05.531Z,2.53
2023-03-14T12:01:52.738Z,2.03
2023-03-14T12:04:31.694Z,2.13
2023-03-14T12:07:06.873Z,0.30
2023-03-14T12:09:34.936Z,0.70
2023-03-14T12:12:06.810Z,0.23
2023-03-14T12:14:37.476Z,1.00
2023-03-14T12:17:08.067Z,2.87
2023-03-14T12:19:39.742Z,1.17
2023-03-14T12:22:22.678Z,0.00
2023-03-14T12:24:52.943Z,0.67
2023-03-14T12:27:43.445Z,0.30
2023-03-14T12:30:30.312Z,0.23
2023-03-14T12:33:21.270Z,0.10
2023-03-14T12:35:50.225Z,0.13
2023-03-14T12:38:24.151Z,0.33
2023-03-14T12:40:57.979Z,0.20
2023-03-14T12:43:27.731Z,0.43
2023-03-14T12:46:20.925Z,0.40
2023-03-14T12:48:49.846Z,0.10
2023-03-14T12:51:18.646Z,0.17
2023-03-14T12:54:39.805Z,0.20
2023-03-14T12:57:26.566Z,0.40
2023-03-14T12:59:57.397Z,0.70
2023-03-14T13:02:37.625Z,0.30
2023-03-14T13:05:12.108Z,1.23
2023-03-14T13:08:04.041Z,0.30
2023-03-14T13:10:38.003Z,1.10
2023-03-14T13:13:17.898Z,0.50
2023-03-14T13:15:48.014Z,0.40
2023-03-14T13:18:19.361Z,0.70
2023-03-14T13:20:51.146Z,0.40
2023-03-14T13:23:21.986Z,1.03
2023-03-14T13:25:49.104Z,0.27
2023-03-14T13:28:17.701Z,0.30
2023-03-14T13:30:45.981Z,0.97
2023-03-14T13:33:15.118Z,1.30
2023-03-14T13:35:45.762Z,0.50
2023-03-14T13:38:20.898Z,0.30
2023-03-14T13:40:49.480Z,0.57
2023-03-14T13:43:20.120Z,0.40
2023-03-14T13:45:51.365Z,0.47
2023-03-14T13:48:19.785Z,0.10
2023-03-14T13:50:52.052Z,1.40
2023-03-14T13:53:19.766Z,0.10
2023-03-14T13:55:46.672Z,0.00
2023-03-14T13:58:22.553Z,0.30
2023-03-14T14:01:04.927Z,0.10
2023-03-14T14:03:35.386Z,0.23
2023-03-14T14:06:04.829Z,0.43
2023-03-14T14:08:31.688Z,0.20
2023-03-14T14:11:03.108Z,1.80
2023-03-14T14:13:34.171Z,0.97
2023-03-14T14:16:02.683Z,1.60
2023-03-14T14:18:31.765Z,0.80
2023-03-14T14:20:59.040Z,0.20
2023-03-14T14:23:30.062Z,0.23
2023-03-14T14:25:58.916Z,0.10
2023-03-14T14:28:28.886Z,0.20
2023-03-14T14:31:04.424Z,0.50
2023-03-14T14:33:39.959Z,0.10
2023-03-14T14:36:20.060Z,0.60
2023-03-14T14:38:59.811Z,1.07
2023-03-14T14:41:32.189Z,1.23
2023-03-14T14:44:00.075Z,0.40
2023-03-14T14:46:30.160Z,0.20
2023-03-14T14:48:58.801Z,0.87
2023-03-14T14:51:31.582Z,1.03
2023-03-14T14:54:10.758Z,0.80
2023-03-14T14:56:38.614Z,0.30
2023-03-14T14:59:08.064Z,0.30
2023-03-14T15:01:37.481Z,0.67
2023-03-14T15:04:12.049Z,0.53
2023-03-14T15:06:39.320Z,0.90
2023-03-14T15:09:09.742Z,1.20
2023-03-14T15:11:36.603Z,1.17
2023-03-14T15:14:04.680Z,0.83
2023-03-14T15:16:33.017Z,0.63
2023-03-14T15:19:08.719Z,0.40
2023-03-14T15:21:41.591Z,0.73
2023-03-14T15:24:11.637Z,0.53
2023-03-14T15:26:38.865Z,0.93
2023-03-14T15:29:08.954Z,0.40
2023-03-14T15:31:37.014Z,0.40
2023-03-14T15:34:04.233Z,0.40
2023-03-14T15:36:33.103Z,0.30
2023-03-14T15:39:00.953Z,0.20
2023-03-14T15:41:29.565Z,0.10
2023-03-14T15:43:56.878Z,0.10
2023-03-14T15:46:24.494Z,0.10
2023-03-14T15:48:52.491Z,0.20
2023-03-14T15:51:20.180Z,1.13
2023-03-14T15:53:47.243Z,0.10
2023-03-14T15:56:15.574Z,0.33
2023-03-14T15:58:47.440Z,0.20
2023-03-14T16:01:16.817Z,0.40
2023-03-14T16:03:45.137Z,0.10
2023-03-14T16:06:12.393Z,0.10
2023-03-14T16:08:39.297Z,0.40
2023-03-14T16:11:06.371Z,0.83
2023-03-14T16:13:33.363Z,0.20
2023-03-14T16:16:04.197Z,0.80
2023-03-14T16:18:33.496Z,0.30
2023-03-14T16:21:02.066Z,0.40
2023-03-14T16:23:29.718Z,0.67
2023-03-14T16:25:57.274Z,2.07
2023-03-14T16:28:25.059Z,0.70
2023-03-14T16:30:52.093Z,0.20
2023-03-14T16:33:20.436Z,0.53
2023-03-14T16:35:57.506Z,0.40
2023-03-14T16:38:24.916Z,0.47
2023-03-14T16:40:59.724Z,0.57
2023-03-14T16:43:27.131Z,0.20
2023-03-14T16:45:54.319Z,0.47
2023-03-14T16:48:22.643Z,0.40
2023-03-14T16:50:51.072Z,1.00
2023-03-14T16:53:17.933Z,0.73
2023-03-14T16:55:45.201Z,0.33
2023-03-14T16:58:12.305Z,1.23
2023-03-14T17:00:39.608Z,0.20
2023-03-14T17:03:06.913Z,1.30
2023-03-14T17:05:35.304Z,2.07
2023-03-14T17:08:02.209Z,1.60
2023-03-14T17:10:29.330Z,4.43
2023-03-14T17:12:56.208Z,0.20
2023-03-14T17:15:23.176Z,0.40
2023-03-14T17:17:50.018Z,0.97
2023-03-14T17:20:17.616Z,0.10
2023-03-14T17:22:45.869Z,0.23
2023-03-14T17:25:12.741Z,0.20
2023-03-14T17:27:39.948Z,1.13
2023-03-14T17:30:08.390Z,1.60
2023-03-14T17:32:35.354Z,0.63
2023-03-14T17:35:02.256Z,1.20
2023-03-14T17:37:29.060Z,1.20
2023-03-14T17:40:01.340Z,0.50
2023-03-14T17:42:28.281Z,2.07
2023-03-14T17:44:57.748Z,0.80
2023-03-14T17:47:24.995Z,0.93
2023-03-14T17:49:51.857Z,0.57
2023-03-14T17:52:18.942Z,0.80
2023-03-14T17:54:45.877Z,0.83
2023-03-14T17:57:14.179Z,0.70
2023-03-14T17:59:42.713Z,3.13
2023-03-14T18:02:10.469Z,0.73
2023-03-14T18:04:37.563Z,0.60
2023-03-14T18:07:04.631Z,0.77
2023-03-14T18:09:31.554Z,1.23
2023-03-14T18:12:07.501Z,0.77
2023-03-14T18:14:46.609Z,0.60
2023-03-14T18:17:13.553Z,2.07
2023-03-14T18:19:40.852Z,3.37
2023-03-14T18:22:08.239Z,1.63
2023-03-14T18:24:35.324Z,1.80
2023-03-14T18:27:02.493Z,3.40
2023-03-14T18:29:29.411Z,2.83
2023-03-14T18:31:58.391Z,6.03
2023-03-14T18:34:25.361Z,1.13
2023-03-14T18:36:52.272Z,6.20
2023-03-14T18:39:19.130Z,2.47
2023-03-14T18:41:46.138Z,3.00
2023-03-14T18:44:13.098Z,3.30
2023-03-14T18:46:42.487Z,4.60
2023-03-14T18:49:11.126Z,9.77
2023-03-14T18:51:38.097Z,7.30
2023-03-14T18:54:10.443Z,9.13
2023-03-14T18:56:38.686Z,4.27
2023-03-14T18:59:05.659Z,4.30
2023-03-14T19:01:34.148Z,4.77
2023-03-14T19:04:01.745Z,3.93
2023-03-14T19:06:33.740Z,5.07
2023-03-14T19:09:01.271Z,3.37
2023-03-14T19:11:28.508Z,3.10
2023-03-14T19:13:56.919Z,3.63
2023-03-14T19:16:26.866Z,7.90
2023-03-14T19:18:55.331Z,7.80
2023-03-14T19:21:28.520Z,7.00
2023-03-14T19:24:01.908Z,4.67
2023-03-14T19:26:31.032Z,4.63
2023-03-14T19:28:58.104Z,5.90
2023-03-14T19:31:25.523Z,7.47
2023-03-14T19:33:52.850Z,7.90
2023-03-14T19:36:25.073Z,6.43
2023-03-14T19:38:52.989Z,7.80
2023-03-14T19:41:23.517Z,7.10
2023-03-14T19:43:50.741Z,5.23
2023-03-14T19:46:18.018Z,8.60
2023-03-14T19:48:45.832Z,6.33
2023-03-14T19:51:13.136Z,7.83
2023-03-14T19:53:41.900Z,11.20
2023-03-14T19:56:09.184Z,10.53
2023-03-14T19:58:38.207Z,8.33
2023-03-14T20:01:07.729Z,7.60
2023-03-14T20:03:36.486Z,4.23
2023-03-14T20:06:07.763Z,3.97
2023-03-14T20:08:34.885Z,4.90
2023-03-14T20:11:04.334Z,5.17
2023-03-14T20:13:31.426Z,6.50
2023-03-14T20:15:59.751Z,29.73
2023-03-14T20:18:26.657Z,10.33
2023-03-14T20:20:53.659Z,23.33
2023-03-14T20:23:20.714Z,16.27
2023-03-14T20:25:54.235Z,19.07
2023-03-14T20:28:21.260Z,9.40
2023-03-14T20:30:48.355Z,11.77
2023-03-14T20:33:18.634Z,7.17
2023-03-14T20:35:45.963Z,8.47
2023-03-14T20:38:12.892Z,7.10
2023-03-14T20:40:40.006Z,10.73
2023-03-14T20:43:07.767Z,9.47
2023-03-14T20:45:34.990Z,7.37
2023-03-14T20:48:01.773Z,6.83
2023-03-14T20:50:29.988Z,9.97
2023-03-14T20:52:56.704Z,8.17
2023-03-14T20:55:23.468Z,4.10
2023-03-14T20:57:50.933Z,9.40
2023-03-14T21:00:18.149Z,11.67
2023-03-14T21:02:45.033Z,8.97
2023-03-14T21:05:11.866Z,13.07
2023-03-14T21:07:41.315Z,8.60
2023-03-14T21:10:10.148Z,6.23
2023-03-14T21:12:38.041Z,6.63
2023-03-14T21:15:06.207Z,5.40
2023-03-14T21:17:33.342Z,8.93
2023-03-14T21:20:00.464Z,6.53
2023-03-14T21:22:29.357Z,7.07
2023-03-14T21:24:57.510Z,8.33
2023-03-14T21:27:24.533Z,9.43
2023-03-14T21:29:51.238Z,9.30
2023-03-14T21:32:18.112Z,5.67
2023-03-14T21:34:45.011Z,10.50
2023-03-14T21:37:11.741Z,9.20
2023-03-14T21:39:38.580Z,10.27
2023-03-14T21:42:09.284Z,10.53
2023-03-14T21:44:37.627Z,8.60
2023-03-14T21:47:05.346Z,6.43
2023-03-14T21:49:38.184Z,9.50
2023-03-14T21:52:05.805Z,10.93
2023-03-14T21:54:35.964Z,6.60
2023-03-14T21:57:03.907Z,8.50
2023-03-14T21:59:33.930Z,7.13
2023-03-14T22:02:02.439Z,3.43
2023-03-14T22:04:34.665Z,7.43
2023-03-14T22:07:02.102Z,9.33
2023-03-14T22:09:29.541Z,11.87
2023-03-14T22:11:56.833Z,8.07
2023-03-14T22:14:24.865Z,8.23
2023-03-14T22:16:54.039Z,9.17
2023-03-14T22:19:21.733Z,7.47
2023-03-14T22:21:49.004Z,6.03
2023-03-14T22:24:15.875Z,5.80
2023-03-14T22:26:42.786Z,6.33
2023-03-14T22:29:09.747Z,5.87
2023-03-14T22:31:36.933Z,8.83
2023-03-14T22:34:05.167Z,7.50
2023-03-14T22:36:31.898Z,6.17
2023-03-14T22:38:58.726Z,11.23
2023-03-14T22:41:25.600Z,6.40
2023-03-14T22:43:52.516Z,5.33
2023-03-14T22:46:19.388Z,6.07
2023-03-14T22:48:46.244Z,8.33
2023-03-14T22:51:14.807Z,7.17
2023-03-14T22:53:41.644Z,4.23
2023-03-14T22:56:09.577Z,9.50
2023-03-14T22:58:36.804Z,6.70
2023-03-14T23:01:04.129Z,9.67
2023-03-14T23:03:31.101Z,8.70
2023-03-14T23:05:58.057Z,9.33
2023-03-14T23:08:26.359Z,11.70
2023-03-14T23:11:00.243Z,10.73
2023-03-14T23:13:27.244Z,9.07
2023-03-14T23:15:54.072Z,5.47
2023-03-14T23:18:20.891Z,9.20
2023-03-14T23:20:48.391Z,11.17
2023-03-14T23:23:15.170Z,9.87
2023-03-14T23:25:52.926Z,8.30
2023-03-14T23:28:23.051Z,12.43
2023-03-14T23:30:54.871Z,11.23
2023-03-14T23:33:22.175Z,7.90
2023-03-14T23:35:49.080Z,9.77
2023-03-14T23:38:15.922Z,7.77
2023-03-14T23:40:44.341Z,10.90
2023-03-14T23:43:11.245Z,6.00
2023-03-14T23:45:38.216Z,11.93
2023-03-14T23:48:05.713Z,7.70
2023-03-14T23:50:36.102Z,10.23
2023-03-14T23:53:02.997Z,6.27
2023-03-14T23:55:29.778Z,4.37
2023-03-14T23:57:57.902Z,7.40
